Time;durP1;ratioP1;P1;durP2;ratioP2;P2;SDS_P1;SDS_P2;PMS_P1;PMS_P2;Temp;Humidity;BMP_temperature;BMP_pressure;BME280_temperature;BME280_humidity;BME280_pressure;Samples;Min_cycle;Max_cycle;Signal;HPM_P1;HPM_P2
2022/12/07 00:01:44;;;;;;;13.52;9.40;;;4.80;99.90;;;;;;4970297;28;20093;-47
2022/12/07 00:04:12;;;;;;;14.55;8.75;;;4.80;99.90;;;;;;4969891;28;20041;-44
2022/12/07 00:06:44;;;;;;;13.93;9.93;;;4.80;99.90;;;;;;4970240;28;20031;-43
2022/12/07 00:09:17;;;;;;;14.68;9.95;;;4.80;99.90;;;;;;4969510;28;20039;-48
2022/12/07 00:11:44;;;;;;;21.25;9.13;;;4.80;99.90;;;;;;4970314;28;20035;-47
2022/12/07 00:14:15;;;;;;;13.23;9.77;;;4.80;99.90;;;;;;4970492;28;20042;-47
2022/12/07 00:16:41;;;;;;;11.35;8.68;;;4.70;99.90;;;;;;4960265;28;20038;-42
2022/12/07 00:19:07;;;;;;;14.48;9.70;;;4.70;99.90;;;;;;4951352;28;20024;-42
2022/12/07 00:21:34;;;;;;;12.35;9.00;;;4.60;99.90;;;;;;4950642;28;20095;-45
2022/12/07 00:24:01;;;;;;;17.50;10.48;;;4.60;99.90;;;;;;4950009;28;20488;-47
2022/12/07 00:26:30;;;;;;;12.23;9.40;;;4.60;99.90;;;;;;4950923;28;20023;-49
2022/12/07 00:28:58;;;;;;;12.85;9.43;;;4.60;99.90;;;;;;4951230;28;20148;-46
2022/12/07 00:31:26;;;;;;;14.43;9.75;;;4.50;99.90;;;;;;4952872;28;20042;-47
2022/12/07 00:33:51;;;;;;;15.07;9.32;;;4.60;99.90;;;;;;4951984;28;20027;-47
2022/12/07 00:36:21;;;;;;;14.23;9.80;;;4.60;99.90;;;;;;4954214;28;20567;-49
2022/12/07 00:38:46;;;;;;;13.95;9.50;;;4.70;99.90;;;;;;4954060;28;20564;-51
2022/12/07 00:41:14;;;;;;;13.88;8.85;;;4.60;99.90;;;;;;4952942;28;20121;-46
2022/12/07 00:43:41;;;;;;;15.43;9.93;;;4.60;99.90;;;;;;4952338;28;20019;-47
2022/12/07 00:46:07;;;;;;;13.32;9.45;;;4.50;99.90;;;;;;4952755;28;20134;-46
2022/12/07 00:48:33;;;;;;;12.90;9.48;;;4.40;99.90;;;;;;4953943;28;20042;-50
2022/12/07 00:50:59;;;;;;;14.90;9.48;;;4.40;99.90;;;;;;4954279;28;20511;-43
2022/12/07 00:53:24;;;;;;;14.73;9.48;;;4.40;99.90;;;;;;4953147;28;20488;-47
2022/12/07 00:55:50;;;;;;;17.00;10.63;;;4.30;99.90;;;;;;4953787;29;20530;-46
2022/12/07 00:58:16;;;;;;;11.90;8.40;;;4.30;99.90;;;;;;4953777;28;20027;-49
2022/12/07 01:00:43;;;;;;;14.73;9.50;;;4.40;99.90;;;;;;4953557;28;20027;-48
2022/12/07 01:03:11;;;;;;;14.43;9.40;;;4.40;99.90;;;;;;4953129;28;20070;-48
2022/12/07 01:05:37;;;;;;;23.65;14.77;;;4.30;99.90;;;;;;4968520;28;20023;-48
2022/12/07 01:08:03;;;;;;;19.15;9.80;;;4.30;99.90;;;;;;4953731;28;20114;-49
2022/12/07 01:10:30;;;;;;;14.45;9.15;;;4.30;99.90;;;;;;4953553;28;20038;-43
2022/12/07 01:12:56;;;;;;;15.65;9.52;;;4.30;99.90;;;;;;4952806;28;20027;-44
2022/12/07 01:15:21;;;;;;;13.60;9.43;;;4.30;99.90;;;;;;4953668;28;20399;-47
2022/12/07 01:17:47;;;;;;;14.20;9.98;;;4.30;99.90;;;;;;4968366;28;20027;-45
2022/12/07 01:20:15;;;;;;;16.55;9.73;;;4.40;99.90;;;;;;4953182;28;20050;-46
2022/12/07 01:22:42;;;;;;;19.85;9.63;;;4.40;99.90;;;;;;4952850;28;20027;-45
2022/12/07 01:25:09;;;;;;;12.30;8.98;;;4.40;99.90;;;;;;4953678;28;20027;-45
2022/12/07 01:27:35;;;;;;;12.95;8.55;;;4.40;99.90;;;;;;4953322;28;20028;-47
2022/12/07 01:30:03;;;;;;;15.10;9.73;;;4.50;99.90;;;;;;4953482;28;20031;-43
2022/12/07 01:32:29;;;;;;;15.00;9.43;;;4.50;99.90;;;;;;4984158;23;20057;-54
2022/12/07 01:34:54;;;;;;;11.82;8.68;;;4.50;99.90;;;;;;4987694;28;20022;-53
2022/12/07 01:37:20;;;;;;;18.40;9.93;;;4.40;99.90;;;;;;4972473;28;20019;-53
2022/12/07 01:39:49;;;;;;;15.70;9.25;;;4.40;99.90;;;;;;4972586;28;20107;-51
2022/12/07 01:42:14;;;;;;;11.57;8.38;;;4.40;99.90;;;;;;4983356;28;20023;-55
2022/12/07 01:45:17;;;;;;;12.52;8.55;;;4.40;99.90;;;;;;4966354;28;20087;-52
2022/12/07 01:47:48;;;;;;;14.52;8.85;;;4.40;99.90;;;;;;4953189;28;20023;-55
2022/12/07 01:50:14;;;;;;;13.48;8.68;;;4.30;99.90;;;;;;4953365;28;20043;-53
2022/12/07 01:52:41;;;;;;;14.27;8.75;;;4.30;99.90;;;;;;4967387;28;20023;-51
2022/12/07 01:55:11;;;;;;;14.70;9.55;;;4.30;99.90;;;;;;4984175;28;20495;-51
2022/12/07 01:57:40;;;;;;;12.77;8.75;;;4.30;99.90;;;;;;4953110;28;20053;-53
2022/12/07 02:00:08;;;;;;;14.52;9.27;;;4.30;99.90;;;;;;4967852;28;20023;-55
2022/12/07 02:02:37;;;;;;;13.07;9.07;;;4.20;99.90;;;;;;4966990;28;20028;-53
2022/12/07 02:05:05;;;;;;;11.23;8.38;;;4.30;99.90;;;;;;4952792;28;20488;-54
2022/12/07 02:07:32;;;;;;;15.32;8.52;;;4.30;99.90;;;;;;4967681;28;20042;-54
2022/12/07 02:10:11;;;;;;;15.82;8.10;;;4.40;99.90;;;;;;4951823;28;20122;-52
2022/12/07 02:12:36;;;;;;;14.10;8.63;;;4.30;99.90;;;;;;4967038;28;20071;-52
2022/12/07 02:15:02;;;;;;;12.50;8.10;;;4.30;99.90;;;;;;4953096;28;20055;-51
2022/12/07 02:17:54;;;;;;;12.57;8.23;;;4.20;99.90;;;;;;4952906;28;20063;-52
2022/12/07 02:20:29;;;;;;;10.55;7.85;;;4.10;99.90;;;;;;4967784;28;20023;-53
2022/12/07 02:23:15;;;;;;;14.63;8.68;;;4.10;99.90;;;;;;4966884;28;20066;-52
2022/12/07 02:26:08;;;;;;;12.70;8.95;;;4.10;99.90;;;;;;4952872;28;20027;-53
2022/12/07 02:28:37;;;;;;;11.43;7.90;;;4.20;99.90;;;;;;4952936;28;20031;-51
2022/12/07 02:31:17;;;;;;;12.95;8.15;;;4.30;99.90;;;;;;4984163;28;20488;-50
2022/12/07 02:33:51;;;;;;;12.57;8.65;;;4.30;99.90;;;;;;4970390;28;20078;-51
2022/12/07 02:36:23;;;;;;;16.60;8.77;;;4.30;99.90;;;;;;4971072;28;20054;-53
2022/12/07 02:38:59;;;;;;;12.45;8.00;;;4.20;99.90;;;;;;4987432;28;20027;-53
2022/12/07 02:41:35;;;;;;;12.85;8.40;;;4.20;99.90;;;;;;4956185;28;20038;-52
2022/12/07 02:44:06;;;;;;;12.05;8.52;;;4.20;99.90;;;;;;4969216;28;20049;-52
2022/12/07 02:46:47;;;;;;;12.15;8.68;;;4.30;99.90;;;;;;4970840;28;20027;-50
2022/12/07 02:49:13;;;;;;;14.38;8.65;;;4.30;99.90;;;;;;4956210;28;20031;-52
2022/12/07 02:51:40;;;;;;;11.52;8.32;;;4.30;99.90;;;;;;4955686;28;20447;-52
2022/12/07 02:54:15;;;;;;;11.05;8.45;;;4.30;99.90;;;;;;4955202;28;20037;-52
2022/12/07 02:56:43;;;;;;;15.10;9.52;;;4.20;99.90;;;;;;4970760;28;20042;-51
2022/12/07 02:59:14;;;;;;;14.60;8.50;;;4.20;99.90;;;;;;4970818;28;20446;-52
2022/12/07 03:02:19;;;;;;;13.25;8.40;;;4.20;99.90;;;;;;4955646;29;20031;-53
2022/12/07 03:04:54;;;;;;;13.27;8.13;;;4.10;99.90;;;;;;4955635;28;20525;-54
2022/12/07 03:07:42;;;;;;;12.32;7.97;;;4.10;99.90;;;;;;4970523;28;20188;-55
2022/12/07 03:10:35;;;;;;;13.32;8.75;;;4.10;99.90;;;;;;4955757;28;20031;-53
2022/12/07 03:13:23;;;;;;;13.05;8.38;;;4.10;99.90;;;;;;4950614;28;20535;-50
2022/12/07 03:16:09;;;;;;;12.55;7.95;;;4.20;99.90;;;;;;4955709;29;20391;-54
2022/12/07 03:18:44;;;;;;;12.82;8.07;;;4.20;99.90;;;;;;4955333;28;20046;-50
2022/12/07 03:21:17;;;;;;;11.40;7.55;;;4.20;99.90;;;;;;4955445;28;20040;-50
2022/12/07 03:23:47;;;;;;;12.05;7.20;;;4.10;99.90;;;;;;4954725;28;20027;-50
2022/12/07 03:26:16;;;;;;;11.23;7.70;;;4.10;99.90;;;;;;4970257;28;20023;-56
2022/12/07 03:28:48;;;;;;;10.70;7.65;;;4.20;99.90;;;;;;4970246;28;20038;-50
2022/12/07 03:31:24;;;;;;;11.15;7.55;;;4.20;99.90;;;;;;4955222;28;20447;-53
2022/12/07 03:33:49;;;;;;;;;;;4.20;99.90;;;;;;4955123;28;20031;-51
2022/12/07 03:36:24;;;;;;;12.80;7.47;;;4.30;99.90;;;;;;4955199;29;20001;-52
2022/12/07 03:39:35;;;;;;;14.30;8.25;;;4.30;99.90;;;;;;4970107;28;20071;-50
2022/12/07 03:42:04;;;;;;;16.23;8.73;;;4.30;99.90;;;;;;4951930;28;20054;-54
2022/12/07 03:44:30;;;;;;;12.25;8.43;;;4.40;99.90;;;;;;4955049;28;20028;-53
2022/12/07 03:47:08;;;;;;;12.90;9.02;;;4.40;99.90;;;;;;4954914;28;20500;-53
2022/12/07 03:49:49;;;;;;;13.52;8.75;;;4.40;99.90;;;;;;4954919;28;20023;-52
2022/12/07 03:52:26;;;;;;;13.05;8.75;;;4.40;99.90;;;;;;4954035;28;20166;-54
2022/12/07 03:55:09;;;;;;;16.10;8.38;;;4.40;99.90;;;;;;4954828;29;20106;-53
2022/12/07 03:57:37;;;;;;;12.05;8.32;;;4.40;99.90;;;;;;4954675;28;20031;-51
2022/12/07 04:00:05;;;;;;;12.43;8.85;;;4.40;99.90;;;;;;4954565;28;20050;-55
2022/12/07 04:02:31;;;;;;;11.45;7.75;;;4.40;99.90;;;;;;4953789;28;20046;-54
2022/12/07 04:04:57;;;;;;;13.27;7.72;;;4.40;99.90;;;;;;4954752;28;20035;-55
2022/12/07 04:07:22;;;;;;;14.43;7.60;;;4.40;99.90;;;;;;4953176;28;20031;-52
2022/12/07 04:09:48;;;;;;;12.25;7.43;;;4.40;99.90;;;;;;4954651;28;20510;-52
2022/12/07 04:12:14;;;;;;;11.25;7.68;;;4.40;99.90;;;;;;4968496;28;20031;-53
2022/12/07 04:14:39;;;;;;;10.00;7.43;;;4.40;99.90;;;;;;4954545;29;20514;-51
2022/12/07 04:17:05;;;;;;;12.13;7.60;;;4.40;99.90;;;;;;4954268;28;20039;-53
2022/12/07 04:19:32;;;;;;;12.93;7.53;;;4.30;99.90;;;;;;4954310;28;20031;-50
2022/12/07 04:22:00;;;;;;;11.35;8.27;;;4.30;99.90;;;;;;4953419;28;20027;-54
2022/12/07 04:24:26;;;;;;;10.57;8.10;;;4.30;99.90;;;;;;4954324;28;20023;-53
2022/12/07 04:26:51;;;;;;;14.05;8.82;;;4.40;99.90;;;;;;4954244;28;20030;-55
2022/12/07 04:29:17;;;;;;;12.27;8.70;;;4.40;99.90;;;;;;4954034;29;20441;-52
2022/12/07 04:31:43;;;;;;;12.13;8.13;;;4.40;99.90;;;;;;4953955;28;20043;-50
2022/12/07 04:34:10;;;;;;;11.18;8.38;;;4.40;99.90;;;;;;4953503;28;20027;-49
2022/12/07 04:36:36;;;;;;;14.07;9.13;;;4.40;99.90;;;;;;4954047;28;20115;-52
2022/12/07 04:39:03;;;;;;;11.98;8.90;;;4.40;99.90;;;;;;4968937;28;20034;-52
2022/12/07 04:41:28;;;;;;;17.00;9.68;;;4.40;99.90;;;;;;4968791;28;20122;-55
2022/12/07 04:43:55;;;;;;;10.18;8.07;;;4.40;99.90;;;;;;4950905;28;20070;-53
2022/12/07 04:46:22;;;;;;;12.73;8.27;;;4.40;99.90;;;;;;4953917;28;20042;-55
2022/12/07 04:48:47;;;;;;;13.95;9.15;;;4.30;99.90;;;;;;4953817;28;20146;-49
2022/12/07 04:51:18;;;;;;;13.38;8.80;;;4.30;99.90;;;;;;4953774;29;20107;-54
2022/12/07 04:53:43;;;;;;;15.20;9.68;;;4.30;99.90;;;;;;4952567;28;20032;-52
2022/12/07 04:56:09;;;;;;;15.00;8.82;;;4.40;99.90;;;;;;4968612;28;20403;-52
2022/12/07 04:58:34;;;;;;;12.32;8.85;;;4.40;99.90;;;;;;4968471;28;20027;-50
2022/12/07 05:01:00;;;;;;;15.05;9.55;;;4.40;99.90;;;;;;4968418;28;20038;-50
2022/12/07 05:03:25;;;;;;;13.98;8.40;;;4.40;99.90;;;;;;4952868;28;20491;-52
2022/12/07 05:05:51;;;;;;;13.20;8.85;;;4.40;99.90;;;;;;4953734;29;20114;-54
2022/12/07 05:08:16;;;;;;;12.95;8.75;;;4.30;99.90;;;;;;4953242;28;20106;-51
2022/12/07 05:10:42;;;;;;;11.07;7.97;;;4.40;99.90;;;;;;4953885;29;20399;-53
2022/12/07 05:13:07;;;;;;;14.50;8.43;;;4.40;99.90;;;;;;4952759;29;20570;-54
2022/12/07 05:15:33;;;;;;;12.85;8.73;;;4.40;99.90;;;;;;4968453;28;20051;-51
2022/12/07 05:17:58;;;;;;;16.02;8.95;;;4.50;99.90;;;;;;4968292;28;20035;-51
2022/12/07 05:20:24;;;;;;;13.70;8.77;;;4.50;99.90;;;;;;4968411;28;20058;-52
2022/12/07 05:22:50;;;;;;;13.32;8.52;;;4.50;99.90;;;;;;4967467;28;20567;-48
2022/12/07 05:25:15;;;;;;;15.27;8.68;;;4.50;99.90;;;;;;4953606;29;20027;-50
2022/12/07 05:27:41;;;;;;;12.23;8.18;;;4.50;99.90;;;;;;4953737;28;20554;-48
2022/12/07 05:30:07;;;;;;;11.30;7.88;;;4.40;99.90;;;;;;4953561;28;20106;-49
2022/12/07 05:32:33;;;;;;;15.25;8.60;;;4.50;99.90;;;;;;4952665;28;20043;-56
2022/12/07 05:34:58;;;;;;;11.55;8.30;;;4.50;99.90;;;;;;4953323;28;20077;-52
2022/12/07 05:37:24;;;;;;;13.50;8.40;;;4.50;99.90;;;;;;4953445;29;20093;-55
2022/12/07 05:39:49;;;;;;;14.07;8.82;;;4.50;99.90;;;;;;4953286;29;20546;-52
2022/12/07 05:42:16;;;;;;;12.13;8.63;;;4.50;99.90;;;;;;4952510;29;20480;-51
2022/12/07 05:44:44;;;;;;;15.57;9.80;;;4.50;99.90;;;;;;4952321;28;20419;-55
2022/12/07 05:47:11;;;;;;;14.15;9.73;;;4.50;99.90;;;;;;4953218;28;20023;-53
2022/12/07 05:49:36;;;;;;;12.70;7.95;;;4.50;99.90;;;;;;4953052;28;20031;-54
2022/12/07 05:52:03;;;;;;;14.95;8.82;;;4.50;99.90;;;;;;4952414;28;20024;-56
2022/12/07 05:54:28;;;;;;;13.68;8.82;;;4.60;99.90;;;;;;4953193;28;20027;-53
2022/12/07 05:56:54;;;;;;;13.68;8.27;;;4.60;99.90;;;;;;4953134;29;20130;-51
2022/12/07 05:59:22;;;;;;;14.85;7.50;;;4.50;99.90;;;;;;4953449;28;20385;-56
2022/12/07 06:01:53;;;;;;;13.32;8.70;;;4.60;99.90;;;;;;4952928;29;20090;-54
2022/12/07 06:04:20;;;;;;;14.60;8.27;;;4.60;99.90;;;;;;4967638;28;20019;-53
2022/12/07 06:06:46;;;;;;;14.20;8.80;;;4.60;99.90;;;;;;4954855;28;20139;-52
2022/12/07 06:09:12;;;;;;;10.73;7.82;;;4.60;99.90;;;;;;4956738;28;20023;-54
2022/12/07 06:14:23;;;;;;;11.97;7.93;;;4.70;99.90;;;;;;4956732;28;20037;-53
2022/12/07 06:16:48;;;;;;;14.60;8.60;;;4.80;99.90;;;;;;4955705;29;20125;-50
2022/12/07 06:19:14;;;;;;;10.85;8.45;;;4.80;99.90;;;;;;4956722;28;20070;-49
2022/12/07 06:21:40;;;;;;;12.60;7.80;;;4.80;99.90;;;;;;4956943;28;20078;-50
2022/12/07 06:24:06;;;;;;;10.82;7.88;;;4.80;99.90;;;;;;4956296;28;20023;-50
2022/12/07 06:26:31;;;;;;;10.55;7.63;;;4.80;99.90;;;;;;4956942;28;20023;-49
2022/12/07 06:28:57;;;;;;;10.80;7.75;;;4.70;99.90;;;;;;4956406;29;20019;-54
2022/12/07 06:31:23;;;;;;;14.88;8.57;;;4.70;99.90;;;;;;4956081;29;20057;-54
2022/12/07 06:33:48;;;;;;;13.35;8.20;;;4.70;99.90;;;;;;4955475;29;20093;-49
2022/12/07 06:36:14;;;;;;;13.25;8.82;;;4.70;99.90;;;;;;4956150;29;20103;-52
2022/12/07 06:38:39;;;;;;;14.63;8.95;;;4.70;99.90;;;;;;4956364;29;20434;-54
2022/12/07 06:41:06;;;;;;;11.00;8.48;;;4.80;99.90;;;;;;4987294;28;20501;-53
2022/12/07 06:43:32;;;;;;;11.77;8.93;;;4.80;99.90;;;;;;4955490;28;20026;-51
2022/12/07 06:45:57;;;;;;;11.23;8.45;;;4.80;99.90;;;;;;4971018;28;20023;-49
2022/12/07 06:48:23;;;;;;;16.67;8.48;;;4.70;99.90;;;;;;4956306;28;20471;-52
2022/12/07 06:50:49;;;;;;;13.65;8.80;;;4.80;99.90;;;;;;4956015;29;20480;-51
2022/12/07 06:53:14;;;;;;;14.43;9.15;;;4.80;99.90;;;;;;4955032;28;20023;-50
2022/12/07 06:55:40;;;;;;;12.05;8.60;;;4.70;99.90;;;;;;4955811;29;20047;-47
2022/12/07 06:58:05;;;;;;;12.80;9.48;;;4.80;99.90;;;;;;4955746;29;20388;-53
2022/12/07 07:00:31;;;;;;;15.32;9.35;;;4.80;99.90;;;;;;4955580;28;20035;-53
2022/12/07 07:02:56;;;;;;;14.23;9.75;;;4.90;99.90;;;;;;4954997;29;20031;-53
2022/12/07 07:05:22;;;;;;;13.70;9.55;;;4.90;99.90;;;;;;4955807;28;20035;-51
2022/12/07 07:07:51;;;;;;;14.88;10.30;;;4.90;99.90;;;;;;4955734;29;20106;-53
2022/12/07 07:10:16;;;;;;;12.45;9.43;;;4.90;99.90;;;;;;4955551;28;20027;-51
2022/12/07 07:12:42;;;;;;;20.02;9.50;;;4.80;99.90;;;;;;4955237;28;20023;-56
2022/12/07 07:15:08;;;;;;;17.60;10.63;;;4.80;99.90;;;;;;4955945;29;20046;-52
2022/12/07 07:17:34;;;;;;;13.70;9.70;;;4.80;99.90;;;;;;4955271;28;20031;-53
2022/12/07 07:19:59;;;;;;;13.82;9.43;;;4.90;99.90;;;;;;4955398;29;20114;-49
2022/12/07 07:22:25;;;;;;;14.93;9.77;;;4.90;99.90;;;;;;4954676;29;20423;-51
2022/12/07 07:24:50;;;;;;;14.02;9.40;;;4.90;99.90;;;;;;4955327;29;20034;-53
2022/12/07 07:27:16;;;;;;;12.80;9.23;;;4.90;99.90;;;;;;4955770;28;20023;-51
2022/12/07 07:29:41;;;;;;;17.15;9.98;;;4.90;99.90;;;;;;4955164;28;20376;-50
2022/12/07 07:34:36;;;;;;;15.77;9.88;;;4.90;99.90;;;;;;5009905;23;20073;-50
2022/12/07 07:37:02;;;;;;;14.55;10.38;;;5.00;99.90;;;;;;4994266;28;20031;-53
2022/12/07 07:39:27;;;;;;;18.40;10.98;;;4.90;99.90;;;;;;4993837;28;20033;-55
2022/12/07 07:41:53;;;;;;;15.45;11.07;;;5.00;99.90;;;;;;4993497;28;20495;-50
2022/12/07 07:44:18;;;;;;;15.15;10.10;;;5.00;99.90;;;;;;4992497;28;20375;-53
2022/12/07 07:46:44;;;;;;;16.40;10.77;;;5.00;99.90;;;;;;4993801;28;20038;-51
2022/12/07 07:49:10;;;;;;;14.90;9.85;;;5.00;99.90;;;;;;4993671;28;20031;-53
2022/12/07 07:51:36;;;;;;;14.40;9.90;;;4.90;99.90;;;;;;4993432;28;20399;-52
2022/12/07 07:54:02;;;;;;;16.55;10.75;;;4.90;99.90;;;;;;4992926;28;20022;-51
2022/12/07 07:56:27;;;;;;;17.38;10.57;;;5.00;99.90;;;;;;4996952;28;20026;-52
2022/12/07 07:58:53;;;;;;;16.38;9.82;;;5.00;99.90;;;;;;5011024;28;20117;-49
2022/12/07 08:01:19;;;;;;;16.98;10.73;;;5.00;99.90;;;;;;4996452;28;20030;-52
2022/12/07 08:03:48;;;;;;;12.45;9.65;;;5.00;99.90;;;;;;4996023;28;20022;-52
2022/12/07 08:06:14;;;;;;;16.83;10.23;;;5.00;99.90;;;;;;4996084;28;20042;-51
2022/12/07 08:08:39;;;;;;;15.82;10.50;;;5.00;99.90;;;;;;4997945;28;20026;-51
2022/12/07 08:11:06;;;;;;;15.65;10.95;;;5.00;99.90;;;;;;4995715;28;20105;-51
2022/12/07 08:13:32;;;;;;;14.57;9.70;;;5.10;99.90;;;;;;4995658;28;20041;-50
2022/12/07 08:15:58;;;;;;;14.48;9.63;;;5.10;99.90;;;;;;4996046;28;20022;-52
2022/12/07 08:18:24;;;;;;;17.58;11.18;;;5.20;99.90;;;;;;4996800;28;20034;-54
2022/12/07 08:20:49;;;;;;;15.57;10.05;;;5.20;99.90;;;;;;4996048;28;20026;-54
2022/12/07 08:23:15;;;;;;;17.00;10.52;;;5.30;99.90;;;;;;4995287;28;20030;-51
2022/12/07 08:25:41;;;;;;;17.30;10.77;;;5.40;99.90;;;;;;4996559;28;20022;-50
2022/12/07 08:28:07;;;;;;;14.60;9.77;;;5.30;99.90;;;;;;5004041;28;20031;-52
2022/12/07 08:30:35;;;;;;;17.55;9.85;;;5.40;99.90;;;;;;5004605;28;20033;-54
2022/12/07 08:33:22;;;;;;;17.38;10.63;;;5.40;99.90;;;;;;5018479;28;20038;-50
2022/12/07 08:36:03;;;;;;;15.30;10.15;;;5.30;99.90;;;;;;5001103;28;20022;-50
2022/12/07 08:38:34;;;;;;;22.63;11.88;;;5.40;99.90;;;;;;5001397;28;20053;-49
2022/12/07 08:41:00;;;;;;;19.73;11.02;;;5.40;99.90;;;;;;5003026;28;20026;-47
2022/12/07 08:43:26;;;;;;;15.85;10.25;;;5.40;99.90;;;;;;4996849;28;20029;-47
2022/12/07 08:46:16;;;;;;;14.25;9.85;;;5.40;99.90;;;;;;5001030;28;20029;-51
2022/12/07 08:49:21;;;;;;;15.32;9.50;;;5.40;99.90;;;;;;5000541;28;20025;-47
2022/12/07 08:51:47;;;;;;;13.60;9.63;;;5.50;99.90;;;;;;5019486;28;20027;-51
2022/12/07 08:54:16;;;;;;;13.57;10.23;;;5.50;99.90;;;;;;5002579;28;20632;-46
2022/12/07 08:56:42;;;;;;;15.35;9.65;;;5.50;99.90;;;;;;5000296;28;20027;-51
2022/12/07 08:59:10;;;;;;;13.90;10.18;;;5.50;99.90;;;;;;5003417;28;20057;-49
2022/12/07 09:01:36;;;;;;;15.65;10.93;;;5.60;99.90;;;;;;5019901;28;20033;-54
2022/12/07 09:04:01;;;;;;;15.93;10.25;;;5.80;99.90;;;;;;5007982;28;20034;-56
2022/12/07 09:06:32;;;;;;;16.95;10.35;;;5.80;99.90;;;;;;5009526;28;20030;-42
2022/12/07 09:09:00;;;;;;;18.95;10.80;;;5.90;99.90;;;;;;5009953;28;20018;-50
2022/12/07 09:11:26;;;;;;;16.85;9.63;;;6.00;99.90;;;;;;5001748;28;20041;-50
2022/12/07 09:13:51;;;;;;;15.20;10.02;;;6.20;99.90;;;;;;5003277;28;20455;-45
2022/12/07 09:16:17;;;;;;;13.25;9.27;;;6.30;99.90;;;;;;5025338;28;20026;-46
2022/12/07 09:18:43;;;;;;;16.20;9.65;;;6.70;99.90;;;;;;5002201;28;20030;-52
2022/12/07 09:21:09;;;;;;;10.32;8.25;;;7.20;99.90;;;;;;5001718;28;20452;-49
2022/12/07 09:23:34;;;;;;;16.45;8.38;;;8.00;99.90;;;;;;4998796;28;20034;-51
2022/12/07 09:26:04;;;;;;;13.43;8.95;;;8.30;99.90;;;;;;4999077;28;20026;-46
2022/12/07 09:28:33;;;;;;;11.05;7.88;;;8.40;99.90;;;;;;4980997;28;20509;-48
2022/12/07 09:30:59;;;;;;;10.82;8.52;;;8.10;99.90;;;;;;4988912;28;20041;-49
2022/12/07 09:33:25;;;;;;;11.65;7.18;;;8.30;99.90;;;;;;5012510;28;20561;-48
2022/12/07 09:35:51;;;;;;;11.55;8.45;;;8.50;99.90;;;;;;4996355;28;20058;-53
2022/12/07 09:38:19;;;;;;;10.82;7.78;;;8.40;99.90;;;;;;4996564;28;20026;-46
2022/12/07 09:40:45;;;;;;;13.80;7.88;;;8.10;99.90;;;;;;4998456;28;20072;-46
2022/12/07 09:43:20;;;;;;;12.18;8.52;;;7.60;99.90;;;;;;5000420;28;20057;-47
2022/12/07 09:45:47;;;;;;;11.38;7.90;;;7.40;99.90;;;;;;5018229;28;20022;-50
2022/12/07 09:48:19;;;;;;;16.33;8.50;;;7.00;99.90;;;;;;5001372;28;20046;-49
2022/12/07 09:50:44;;;;;;;13.32;9.13;;;6.80;99.90;;;;;;4998467;28;20728;-49
2022/12/07 09:53:20;;;;;;;15.13;8.73;;;6.70;99.90;;;;;;4996966;28;20057;-47
2022/12/07 09:55:46;;;;;;;13.98;8.85;;;6.60;99.90;;;;;;5012253;28;20105;-52
2022/12/07 09:58:21;;;;;;;13.27;8.95;;;6.50;99.90;;;;;;4997765;28;20654;-41
2022/12/07 10:00:47;;;;;;;;;;;6.40;99.90;;;;;;4997764;28;20030;-47
2022/12/07 10:03:13;;;;;;;12.93;9.70;;;6.50;99.90;;;;;;5011174;28;19909;-45
2022/12/07 10:05:42;;;;;;;13.55;9.30;;;6.50;99.90;;;;;;4996269;28;20037;-49
2022/12/07 10:08:11;;;;;;;14.57;10.23;;;6.50;99.90;;;;;;4996338;28;20022;-47
2022/12/07 10:10:38;;;;;;;13.07;9.05;;;6.60;99.90;;;;;;5011256;28;20190;-42
2022/12/07 10:13:09;;;;;;;15.35;9.05;;;6.70;99.90;;;;;;4997556;28;20077;-43
2022/12/07 10:15:54;;;;;;;13.90;9.07;;;6.70;99.90;;;;;;5008809;28;20034;-46
2022/12/07 10:18:38;;;;;;;11.93;7.93;;;6.70;99.90;;;;;;5018185;28;20053;-45
2022/12/07 10:21:10;;;;;;;12.82;9.60;;;6.80;99.90;;;;;;5017740;28;20030;-47
2022/12/07 10:23:38;;;;;;;14.23;7.97;;;6.80;99.90;;;;;;4999704;28;20033;-49
2022/12/07 10:26:29;;;;;;;13.40;8.55;;;6.80;99.90;;;;;;4999233;28;20026;-45
2022/12/07 10:28:58;;;;;;;15.82;8.23;;;6.80;99.90;;;;;;4995628;28;20042;-44
2022/12/07 10:31:23;;;;;;;13.90;8.93;;;6.80;99.90;;;;;;5013850;28;20030;-50
2022/12/07 10:33:52;;;;;;;13.68;7.90;;;6.70;99.90;;;;;;4998472;28;20475;-45
2022/12/07 10:36:23;;;;;;;13.30;8.15;;;6.70;99.90;;;;;;4999749;28;20023;-57
2022/12/07 10:39:00;;;;;;;9.80;7.78;;;6.70;99.90;;;;;;5002658;28;20089;-44
2022/12/07 10:41:26;;;;;;;11.02;7.28;;;6.80;99.90;;;;;;5004102;28;20032;-51
2022/12/07 10:43:55;;;;;;;8.85;6.50;;;7.10;99.90;;;;;;5017216;28;20058;-49
2022/12/07 10:46:45;;;;;;;8.10;6.25;;;7.30;99.90;;;;;;5004020;28;20088;-47
2022/12/07 10:49:40;;;;;;;13.75;6.35;;;7.50;99.90;;;;;;5003447;28;20029;-52
2022/12/07 10:52:27;;;;;;;7.93;5.60;;;7.40;99.90;;;;;;5002392;28;20447;-49
2022/12/07 10:55:16;;;;;;;9.10;6.57;;;7.40;99.90;;;;;;5003656;28;20189;-53
2022/12/07 10:58:00;;;;;;;8.00;6.60;;;7.40;99.90;;;;;;4998568;28;20018;-47
2022/12/07 11:00:33;;;;;;;11.38;7.13;;;7.30;99.90;;;;;;4989463;28;20027;-47
2022/12/07 11:03:11;;;;;;;13.77;6.47;;;7.20;99.90;;;;;;4981151;28;20029;-55
2022/12/07 11:05:51;;;;;;;10.23;6.47;;;7.10;99.90;;;;;;5014218;28;20027;-47
2022/12/07 11:08:36;;;;;;;10.70;6.45;;;7.00;99.90;;;;;;4995590;28;20030;-53
2022/12/07 11:11:12;;;;;;;13.63;7.30;;;7.00;99.90;;;;;;4983327;28;20026;-57
2022/12/07 11:14:01;;;;;;;12.98;6.25;;;6.90;99.90;;;;;;5005297;28;20117;-55
2022/12/07 11:16:41;;;;;;;7.35;5.50;;;6.80;99.90;;;;;;4988647;28;20034;-52
2022/12/07 11:19:41;;;;;;;10.02;5.25;;;6.80;99.90;;;;;;4989787;28;20584;-54
2022/12/07 11:22:30;;;;;;;7.35;5.35;;;6.90;99.90;;;;;;4989550;28;20050;-48
2022/12/07 11:25:13;;;;;;;9.45;5.32;;;7.10;99.90;;;;;;4983518;28;20025;-51
2022/12/07 11:28:00;;;;;;;7.97;5.20;;;7.30;99.90;;;;;;4982285;28;20044;-47
2022/12/07 11:30:45;;;;;;;7.53;4.53;;;7.40;99.90;;;;;;4986329;28;20660;-57
2022/12/07 11:34:12;;;;;;;6.78;4.63;;;7.50;99.90;;;;;;4991141;28;20022;-57
2022/12/07 11:36:43;;;;;;;5.03;3.53;;;7.60;99.90;;;;;;4898169;28;20055;-57
2022/12/07 11:39:21;;;;;;;7.28;4.13;;;7.60;99.90;;;;;;4990980;28;20022;-47
2022/12/07 11:41:49;;;;;;;7.65;4.28;;;7.60;99.90;;;;;;4992351;28;20042;-59
2022/12/07 11:44:51;;;;;;;4.65;3.33;;;7.60;99.90;;;;;;4992340;28;20034;-55
2022/12/07 11:47:27;;;;;;;5.95;3.50;;;7.60;99.90;;;;;;4982770;28;20041;-50
2022/12/07 11:50:30;;;;;;;7.07;3.60;;;7.50;99.90;;;;;;4991257;28;20319;-49
2022/12/07 11:53:08;;;;;;;3.92;2.30;;;7.50;99.90;;;;;;4988643;28;20105;-57
2022/12/07 11:55:50;;;;;;;4.03;2.80;;;7.40;99.90;;;;;;4990560;28;20076;-58
2022/12/07 11:58:44;;;;;;;6.20;2.67;;;7.40;99.90;;;;;;4989111;28;20027;-55
2022/12/07 12:01:33;;;;;;;3.55;2.20;;;7.30;99.90;;;;;;4986635;28;20350;-51
2022/12/07 12:04:07;;;;;;;4.55;2.22;;;7.40;99.90;;;;;;4990387;28;20153;-56
2022/12/07 12:06:35;;;;;;;2.72;1.67;;;7.40;99.90;;;;;;4992654;28;20493;-51
2022/12/07 12:09:03;;;;;;;6.18;2.25;;;7.40;99.90;;;;;;4997602;28;20014;-54
2022/12/07 12:11:44;;;;;;;4.47;2.13;;;7.40;99.90;;;;;;4991558;28;20038;-56
2022/12/07 12:14:37;;;;;;;6.47;2.80;;;7.40;99.90;;;;;;5011656;28;20397;-51
2022/12/07 12:17:31;;;;;;;2.88;1.77;;;7.40;99.90;;;;;;5000261;28;20057;-55
2022/12/07 12:20:19;;;;;;;5.00;2.97;;;7.30;99.90;;;;;;4996642;28;20018;-52
2022/12/07 12:22:59;;;;;;;4.80;1.75;;;7.30;99.90;;;;;;4995306;28;20034;-54
2022/12/07 12:25:35;;;;;;;3.70;2.10;;;7.30;99.90;;;;;;5016494;28;20030;-54
2022/12/07 12:28:01;;;;;;;6.20;1.90;;;7.30;99.90;;;;;;5007664;28;20026;-51
2022/12/07 12:30:39;;;;;;;3.35;2.15;;;7.30;99.90;;;;;;4990604;28;20030;-55
2022/12/07 12:33:14;;;;;;;3.03;1.88;;;7.30;99.90;;;;;;4992163;28;20430;-49
2022/12/07 12:35:40;;;;;;;4.60;2.13;;;7.30;99.90;;;;;;4991368;28;20034;-56
2022/12/07 12:38:49;;;;;;;11.82;2.75;;;7.30;99.90;;;;;;4991435;28;20030;-58
2022/12/07 12:41:33;;;;;;;3.13;2.70;;;7.30;99.90;;;;;;4948144;28;20054;-56
2022/12/07 12:43:58;;;;;;;8.32;2.53;;;7.30;99.90;;;;;;5005171;28;20065;-56
2022/12/07 12:46:33;;;;;;;6.78;2.72;;;7.40;99.90;;;;;;5004852;28;20050;-45
2022/12/07 12:49:38;;;;;;;4.85;2.22;;;7.40;99.90;;;;;;4995985;28;20046;-52
2022/12/07 12:52:13;;;;;;;7.50;1.98;;;7.30;99.90;;;;;;4988555;28;20109;-47
2022/12/07 12:54:56;;;;;;;2.93;2.30;;;7.20;99.90;;;;;;4995854;28;20030;-54
2022/12/07 12:57:27;;;;;;;3.83;1.58;;;7.10;99.90;;;;;;4990299;28;20050;-54
2022/12/07 12:59:53;;;;;;;2.42;1.48;;;7.10;99.90;;;;;;4991611;28;20570;-54
2022/12/07 13:02:25;;;;;;;5.35;2.40;;;7.00;99.90;;;;;;4997297;28;20101;-48
2022/12/07 13:05:07;;;;;;;4.25;1.60;;;7.00;99.90;;;;;;4995750;28;20022;-45
2022/12/07 13:07:54;;;;;;;3.83;1.80;;;7.00;99.90;;;;;;4999366;28;20023;-55
2022/12/07 13:10:37;;;;;;;3.40;1.38;;;7.00;99.90;;;;;;4998524;28;20030;-50
2022/12/07 13:13:15;;;;;;;2.63;1.90;;;7.00;99.90;;;;;;4995288;28;20041;-49
2022/12/07 13:15:40;;;;;;;1.80;1.65;;;7.10;99.90;;;;;;4995149;28;20422;-52